sensor_id;sensor_type;location;lat;lon;timestamp;temperature;humidity
71096;DHT22;58753;49.440;11.126;2023-02-28T00:00:46;-3.13;73.20
71096;DHT22;58753;49.440;11.126;2023-02-28T00:03:11;-3.17;73.32
71096;DHT22;58753;49.440;11.126;2023-02-28T00:05:37;-3.18;73.38
71096;DHT22;58753;49.440;11.126;2023-02-28T00:08:06;-3.18;73.61
71096;DHT22;58753;49.440;11.126;2023-02-28T00:10:31;-3.18;73.79
71096;DHT22;58753;49.440;11.126;2023-02-28T00:13:05;-3.17;73.93
71096;DHT22;58753;49.440;11.126;2023-02-28T00:15:31;-3.17;73.96
71096;DHT22;58753;49.440;11.126;2023-02-28T00:17:56;-3.16;74.15
71096;DHT22;58753;49.440;11.126;2023-02-28T00:20:22;-3.14;74.23
71096;DHT22;58753;49.440;11.126;2023-02-28T00:22:49;-3.13;74.35
71096;DHT22;58753;49.440;11.126;2023-02-28T00:25:17;-3.13;74.36
71096;DHT22;58753;49.440;11.126;2023-02-28T00:27:44;-3.16;74.42
71096;DHT22;58753;49.440;11.126;2023-02-28T00:30:13;-3.11;74.59
71096;DHT22;58753;49.440;11.126;2023-02-28T00:32:38;-3.10;74.75
71096;DHT22;58753;49.440;11.126;2023-02-28T00:35:05;-3.08;74.65
71096;DHT22;58753;49.440;11.126;2023-02-28T00:37:31;-3.07;74.81
71096;DHT22;58753;49.440;11.126;2023-02-28T00:39:56;-3.08;74.81
71096;DHT22;58753;49.440;11.126;2023-02-28T00:42:22;-3.07;75.00
71096;DHT22;58753;49.440;11.126;2023-02-28T00:44:47;-3.03;75.06
71096;DHT22;58753;49.440;11.126;2023-02-28T00:47:13;-3.03;75.04
71096;DHT22;58753;49.440;11.126;2023-02-28T00:49:38;-3.04;75.21
71096;DHT22;58753;49.440;11.126;2023-02-28T00:52:05;-3.00;75.31
71096;DHT22;58753;49.440;11.126;2023-02-28T00:54:30;-2.97;75.38
71096;DHT22;58753;49.440;11.126;2023-02-28T00:56:55;-2.95;75.41
71096;DHT22;58753;49.440;11.126;2023-02-28T00:59:21;-2.92;75.36
71096;DHT22;58753;49.440;11.126;2023-02-28T01:01:47;-2.89;75.39
71096;DHT22;58753;49.440;11.126;2023-02-28T01:04:14;-2.89;75.47
71096;DHT22;58753;49.440;11.126;2023-02-28T01:06:39;-2.90;75.51
71096;DHT22;58753;49.440;11.126;2023-02-28T01:09:06;-2.87;75.53
71096;DHT22;58753;49.440;11.126;2023-02-28T01:11:31;-2.89;75.64
71096;DHT22;58753;49.440;11.126;2023-02-28T01:13:57;-2.86;75.67
71096;DHT22;58753;49.440;11.126;2023-02-28T01:16:23;-2.87;75.66
71096;DHT22;58753;49.440;11.126;2023-02-28T01:18:48;-2.86;75.69
71096;DHT22;58753;49.440;11.126;2023-02-28T01:21:16;-2.90;75.70
71096;DHT22;58753;49.440;11.126;2023-02-28T01:23:43;-2.93;75.75
71096;DHT22;58753;49.440;11.126;2023-02-28T01:26:19;-2.93;75.90
71096;DHT22;58753;49.440;11.126;2023-02-28T01:28:44;-2.92;75.90
71096;DHT22;58753;49.440;11.126;2023-02-28T01:31:10;-2.92;75.92
71096;DHT22;58753;49.440;11.126;2023-02-28T01:33:36;-2.95;75.98
71096;DHT22;58753;49.440;11.126;2023-02-28T01:36:07;-2.92;76.10
71096;DHT22;58753;49.440;11.126;2023-02-28T01:38:34;-2.89;76.05
71096;DHT22;58753;49.440;11.126;2023-02-28T01:40:59;-2.92;76.02
71096;DHT22;58753;49.440;11.126;2023-02-28T01:43:27;-2.95;76.15
71096;DHT22;58753;49.440;11.126;2023-02-28T01:45:55;-2.96;76.15
71096;DHT22;58753;49.440;11.126;2023-02-28T01:48:27;-2.99;76.14
71096;DHT22;58753;49.440;11.126;2023-02-28T01:50:55;-2.97;76.27
71096;DHT22;58753;49.440;11.126;2023-02-28T01:53:25;-2.97;76.28
71096;DHT22;58753;49.440;11.126;2023-02-28T01:55:55;-3.00;76.34
71096;DHT22;58753;49.440;11.126;2023-02-28T01:58:21;-3.00;76.57
71096;DHT22;58753;49.440;11.126;2023-02-28T02:00:46;-2.96;76.63
71096;DHT22;58753;49.440;11.126;2023-02-28T02:03:14;-2.97;76.52
71096;DHT22;58753;49.440;11.126;2023-02-28T02:05:40;-3.00;76.61
71096;DHT22;58753;49.440;11.126;2023-02-28T02:08:12;-3.00;76.70
71096;DHT22;58753;49.440;11.126;2023-02-28T02:10:59;-3.01;76.72
71096;DHT22;58753;49.440;11.126;2023-02-28T02:13:55;-3.00;76.85
71096;DHT22;58753;49.440;11.126;2023-02-28T02:16:30;-2.99;76.84
71096;DHT22;58753;49.440;11.126;2023-02-28T02:32:39;-3.00;77.23
71096;DHT22;58753;49.440;11.126;2023-02-28T02:43:25;-2.96;77.43
71096;DHT22;58753;49.440;11.126;2023-02-28T02:46:03;-2.97;77.48
71096;DHT22;58753;49.440;11.126;2023-02-28T02:48:32;-2.96;77.52
71096;DHT22;58753;49.440;11.126;2023-02-28T02:51:01;-2.96;77.66
71096;DHT22;58753;49.440;11.126;2023-02-28T02:53:33;-2.95;77.62
71096;DHT22;58753;49.440;11.126;2023-02-28T02:56:01;-2.97;77.73
71096;DHT22;58753;49.440;11.126;2023-02-28T02:58:32;-2.93;77.74
71096;DHT22;58753;49.440;11.126;2023-02-28T03:01:01;-2.95;77.69
71096;DHT22;58753;49.440;11.126;2023-02-28T03:03:29;-2.93;77.79
71096;DHT22;58753;49.440;11.126;2023-02-28T03:06:00;-2.95;77.82
71096;DHT22;58753;49.440;11.126;2023-02-28T03:08:28;-2.95;77.80
71096;DHT22;58753;49.440;11.126;2023-02-28T03:11:00;-2.93;77.82
71096;DHT22;58753;49.440;11.126;2023-02-28T03:19:52;-2.97;78.01
71096;DHT22;58753;49.440;11.126;2023-02-28T03:25:09;-3.00;77.98
71096;DHT22;58753;49.440;11.126;2023-02-28T03:27:42;-3.03;78.03
71096;DHT22;58753;49.440;11.126;2023-02-28T03:33:06;-3.03;78.19
71096;DHT22;58753;49.440;11.126;2023-02-28T03:35:39;-3.04;78.27
71096;DHT22;58753;49.440;11.126;2023-02-28T03:38:27;-3.03;78.26
71096;DHT22;58753;49.440;11.126;2023-02-28T03:41:00;-3.04;78.37
71096;DHT22;58753;49.440;11.126;2023-02-28T03:43:31;-3.03;78.45
71096;DHT22;58753;49.440;11.126;2023-02-28T03:45:59;-3.03;78.50
71096;DHT22;58753;49.440;11.126;2023-02-28T03:48:50;-3.07;78.50
71096;DHT22;58753;49.440;11.126;2023-02-28T03:51:19;-3.03;78.48
71096;DHT22;58753;49.440;11.126;2023-02-28T03:53:53;-3.03;78.62
71096;DHT22;58753;49.440;11.126;2023-02-28T03:59:16;-3.07;78.64
71096;DHT22;58753;49.440;11.126;2023-02-28T04:01:47;-3.07;78.70
71096;DHT22;58753;49.440;11.126;2023-02-28T04:04:14;-3.10;78.69
71096;DHT22;58753;49.440;11.126;2023-02-28T04:06:41;-3.10;78.75
71096;DHT22;58753;49.440;11.126;2023-02-28T04:09:08;-3.11;78.79
71096;DHT22;58753;49.440;11.126;2023-02-28T04:11:37;-3.11;78.97
71096;DHT22;58753;49.440;11.126;2023-02-28T04:14:03;-3.10;78.90
71096;DHT22;58753;49.440;11.126;2023-02-28T04:16:31;-3.11;78.98
71096;DHT22;58753;49.440;11.126;2023-02-28T04:18:56;-3.11;79.05
71096;DHT22;58753;49.440;11.126;2023-02-28T04:21:31;-3.13;78.98
71096;DHT22;58753;49.440;11.126;2023-02-28T04:23:57;-3.10;79.14
71096;DHT22;58753;49.440;11.126;2023-02-28T04:26:35;-3.11;79.13
71096;DHT22;58753;49.440;11.126;2023-02-28T04:29:06;-3.11;79.11
71096;DHT22;58753;49.440;11.126;2023-02-28T04:31:33;-3.08;79.15
71096;DHT22;58753;49.440;11.126;2023-02-28T04:33:59;-3.07;79.18
71096;DHT22;58753;49.440;11.126;2023-02-28T04:36:25;-3.07;79.26
71096;DHT22;58753;49.440;11.126;2023-02-28T04:38:50;-3.08;79.24
71096;DHT22;58753;49.440;11.126;2023-02-28T04:41:16;-3.07;79.36
71096;DHT22;58753;49.440;11.126;2023-02-28T04:43:42;-3.06;79.40
71096;DHT22;58753;49.440;11.126;2023-02-28T04:46:08;-3.06;79.33
71096;DHT22;58753;49.440;11.126;2023-02-28T04:48:36;-3.04;79.27
71096;DHT22;58753;49.440;11.126;2023-02-28T04:51:10;-3.04;79.35
71096;DHT22;58753;49.440;11.126;2023-02-28T04:53:37;-3.07;79.27
71096;DHT22;58753;49.440;11.126;2023-02-28T04:56:04;-3.06;79.39
71096;DHT22;58753;49.440;11.126;2023-02-28T04:58:29;-3.10;79.29
71096;DHT22;58753;49.440;11.126;2023-02-28T05:01:01;-3.11;79.36
71096;DHT22;58753;49.440;11.126;2023-02-28T05:03:27;-3.10;79.49
71096;DHT22;58753;49.440;11.126;2023-02-28T05:05:53;-3.10;79.53
71096;DHT22;58753;49.440;11.126;2023-02-28T05:08:18;-3.11;79.48
71096;DHT22;58753;49.440;11.126;2023-02-28T05:10:43;-3.11;79.48
71096;DHT22;58753;49.440;11.126;2023-02-28T05:13:11;-3.13;79.49
71096;DHT22;58753;49.440;11.126;2023-02-28T05:15:37;-3.13;79.56
71096;DHT22;58753;49.440;11.126;2023-02-28T05:18:03;-3.13;79.62
71096;DHT22;58753;49.440;11.126;2023-02-28T05:20:28;-3.14;79.58
71096;DHT22;58753;49.440;11.126;2023-02-28T05:22:54;-3.14;79.62
71096;DHT22;58753;49.440;11.126;2023-02-28T05:25:20;-3.16;79.57
71096;DHT22;58753;49.440;11.126;2023-02-28T05:27:47;-3.21;79.61
71096;DHT22;58753;49.440;11.126;2023-02-28T05:30:12;-3.18;79.79
71096;DHT22;58753;49.440;11.126;2023-02-28T05:32:39;-3.20;79.76
71096;DHT22;58753;49.440;11.126;2023-02-28T05:35:09;-3.21;79.95
71096;DHT22;58753;49.440;11.126;2023-02-28T05:37:35;-3.18;79.85
71096;DHT22;58753;49.440;11.126;2023-02-28T05:40:01;-3.23;79.91
71096;DHT22;58753;49.440;11.126;2023-02-28T05:42:26;-3.24;79.88
71096;DHT22;58753;49.440;11.126;2023-02-28T05:44:52;-3.27;79.91
71096;DHT22;58753;49.440;11.126;2023-02-28T05:47:17;-3.31;79.91
71096;DHT22;58753;49.440;11.126;2023-02-28T05:49:42;-3.28;80.13
71096;DHT22;58753;49.440;11.126;2023-02-28T05:52:11;-3.28;80.18
71096;DHT22;58753;49.440;11.126;2023-02-28T05:54:37;-3.30;80.19
71096;DHT22;58753;49.440;11.126;2023-02-28T05:57:02;-3.31;80.21
71096;DHT22;58753;49.440;11.126;2023-02-28T05:59:27;-3.34;80.21
71096;DHT22;58753;49.440;11.126;2023-02-28T06:01:53;-3.34;80.33
71096;DHT22;58753;49.440;11.126;2023-02-28T06:04:20;-3.33;80.41
71096;DHT22;58753;49.440;11.126;2023-02-28T06:06:49;-3.33;80.34
71096;DHT22;58753;49.440;11.126;2023-02-28T06:09:16;-3.31;80.45
71096;DHT22;58753;49.440;11.126;2023-02-28T06:11:41;-3.31;80.49
71096;DHT22;58753;49.440;11.126;2023-02-28T06:14:07;-3.28;80.54
71096;DHT22;58753;49.440;11.126;2023-02-28T06:16:34;-3.27;80.48
71096;DHT22;58753;49.440;11.126;2023-02-28T06:19:01;-3.28;80.42
71096;DHT22;58753;49.440;11.126;2023-02-28T06:21:28;-3.28;80.46
71096;DHT22;58753;49.440;11.126;2023-02-28T06:23:54;-3.26;80.50
71096;DHT22;58753;49.440;11.126;2023-02-28T06:26:20;-3.23;80.49
71096;DHT22;58753;49.440;11.126;2023-02-28T06:28:46;-3.21;80.57
71096;DHT22;58753;49.440;11.126;2023-02-28T06:31:13;-3.17;80.54
71096;DHT22;58753;49.440;11.126;2023-02-28T06:33:40;-3.14;80.58
71096;DHT22;58753;49.440;11.126;2023-02-28T06:36:06;-3.07;80.57
71096;DHT22;58753;49.440;11.126;2023-02-28T06:38:33;-3.06;80.48
71096;DHT22;58753;49.440;11.126;2023-02-28T06:41:00;-3.01;80.62
71096;DHT22;58753;49.440;11.126;2023-02-28T06:43:29;-2.97;80.48
71096;DHT22;58753;49.440;11.126;2023-02-28T06:45:55;-2.92;80.46
71096;DHT22;58753;49.440;11.126;2023-02-28T06:48:21;-2.89;80.41
71096;DHT22;58753;49.440;11.126;2023-02-28T06:50:46;-2.83;80.37
71096;DHT22;58753;49.440;11.126;2023-02-28T06:53:12;-2.76;80.41
71096;DHT22;58753;49.440;11.126;2023-02-28T06:55:38;-2.72;80.33
71096;DHT22;58753;49.440;11.126;2023-02-28T06:58:04;-2.66;80.21
71096;DHT22;58753;49.440;11.126;2023-02-28T07:00:43;-2.63;80.18
71096;DHT22;58753;49.440;11.126;2023-02-28T07:03:09;-2.58;79.98
71096;DHT22;58753;49.440;11.126;2023-02-28T07:05:36;-2.52;79.91
71096;DHT22;58753;49.440;11.126;2023-02-28T07:08:02;-2.46;79.81
71096;DHT22;58753;49.440;11.126;2023-02-28T07:10:28;-2.42;79.70
71096;DHT22;58753;49.440;11.126;2023-02-28T07:12:54;-2.40;79.64
71096;DHT22;58753;49.440;11.126;2023-02-28T07:15:19;-2.31;79.56
71096;DHT22;58753;49.440;11.126;2023-02-28T07:17:45;-2.27;79.43
71096;DHT22;58753;49.440;11.126;2023-02-28T07:20:10;-2.20;79.17
71096;DHT22;58753;49.440;11.126;2023-02-28T07:22:36;-2.17;79.02
71096;DHT22;58753;49.440;11.126;2023-02-28T07:25:01;-2.05;78.90
71096;DHT22;58753;49.440;11.126;2023-02-28T07:27:27;-2.01;78.83
71096;DHT22;58753;49.440;11.126;2023-02-28T07:29:52;-1.94;78.62
71096;DHT22;58753;49.440;11.126;2023-02-28T07:32:18;-1.84;78.45
71096;DHT22;58753;49.440;11.126;2023-02-28T07:34:44;-1.81;78.21
71096;DHT22;58753;49.440;11.126;2023-02-28T07:37:10;-1.77;78.05
71096;DHT22;58753;49.440;11.126;2023-02-28T07:39:35;-1.74;77.88
71096;DHT22;58753;49.440;11.126;2023-02-28T07:42:04;-1.69;77.76
71096;DHT22;58753;49.440;11.126;2023-02-28T07:44:30;-1.59;77.58
71096;DHT22;58753;49.440;11.126;2023-02-28T07:46:55;-1.52;77.29
71096;DHT22;58753;49.440;11.126;2023-02-28T07:49:20;-1.43;77.21
71096;DHT22;58753;49.440;11.126;2023-02-28T07:51:46;-1.39;76.95
71096;DHT22;58753;49.440;11.126;2023-02-28T07:54:11;-1.34;76.81
71096;DHT22;58753;49.440;11.126;2023-02-28T07:56:36;-1.29;76.63
71096;DHT22;58753;49.440;11.126;2023-02-28T07:59:02;-1.22;76.61
71096;DHT22;58753;49.440;11.126;2023-02-28T08:01:27;-1.18;76.20
71096;DHT22;58753;49.440;11.126;2023-02-28T08:03:53;-1.11;76.10
71096;DHT22;58753;49.440;11.126;2023-02-28T08:06:22;-1.02;75.87
71096;DHT22;58753;49.440;11.126;2023-02-28T08:08:48;-0.95;75.68
71096;DHT22;58753;49.440;11.126;2023-02-28T08:11:14;-0.91;75.43
71096;DHT22;58753;49.440;11.126;2023-02-28T08:13:40;-0.83;75.24
71096;DHT22;58753;49.440;11.126;2023-02-28T08:16:07;-0.78;75.02
71096;DHT22;58753;49.440;11.126;2023-02-28T08:18:33;-0.71;74.73
71096;DHT22;58753;49.440;11.126;2023-02-28T08:20:59;-0.64;74.51
71096;DHT22;58753;49.440;11.126;2023-02-28T08:23:25;-0.60;74.27
71096;DHT22;58753;49.440;11.126;2023-02-28T08:25:54;-0.57;74.11
71096;DHT22;58753;49.440;11.126;2023-02-28T08:28:20;-0.53;73.76
71096;DHT22;58753;49.440;11.126;2023-02-28T08:30:45;-0.49;73.58
71096;DHT22;58753;49.440;11.126;2023-02-28T08:33:11;-0.43;73.37
71096;DHT22;58753;49.440;11.126;2023-02-28T08:35:36;-0.37;73.07
71096;DHT22;58753;49.440;11.126;2023-02-28T08:38:02;-0.36;72.77
71096;DHT22;58753;49.440;11.126;2023-02-28T08:40:28;-0.29;72.51
71096;DHT22;58753;49.440;11.126;2023-02-28T08:42:53;-0.26;72.26
71096;DHT22;58753;49.440;11.126;2023-02-28T08:45:18;-0.23;72.09
71096;DHT22;58753;49.440;11.126;2023-02-28T08:47:44;-0.20;71.73
71096;DHT22;58753;49.440;11.126;2023-02-28T08:50:09;-0.13;71.52
71096;DHT22;58753;49.440;11.126;2023-02-28T08:52:35;-0.05;71.27
71096;DHT22;58753;49.440;11.126;2023-02-28T08:55:00;-0.03;70.85
71096;DHT22;58753;49.440;11.126;2023-02-28T08:57:26;-0.02;70.67
71096;DHT22;58753;49.440;11.126;2023-02-28T08:59:52;0.04;70.53
71096;DHT22;58753;49.440;11.126;2023-02-28T09:02:18;0.04;70.24
71096;DHT22;58753;49.440;11.126;2023-02-28T09:04:43;0.10;70.02
71096;DHT22;58753;49.440;11.126;2023-02-28T09:07:11;0.14;69.80
71096;DHT22;58753;49.440;11.126;2023-02-28T09:09:36;0.21;69.58
71096;DHT22;58753;49.440;11.126;2023-02-28T09:12:02;0.24;69.44
71096;DHT22;58753;49.440;11.126;2023-02-28T09:14:27;0.35;69.36
71096;DHT22;58753;49.440;11.126;2023-02-28T09:16:53;0.52;69.22
71096;DHT22;58753;49.440;11.126;2023-02-28T09:19:18;0.53;68.64
71096;DHT22;58753;49.440;11.126;2023-02-28T09:21:44;0.51;68.44
71096;DHT22;58753;49.440;11.126;2023-02-28T09:24:09;0.51;68.05
71096;DHT22;58753;49.440;11.126;2023-02-28T09:26:37;0.46;67.99
71096;DHT22;58753;49.440;11.126;2023-02-28T09:29:02;0.45;67.88
71096;DHT22;58753;49.440;11.126;2023-02-28T09:31:28;0.55;67.84
71096;DHT22;58753;49.440;11.126;2023-02-28T09:33:56;0.68;67.72
71096;DHT22;58753;49.440;11.126;2023-02-28T09:36:23;0.85;67.45
71096;DHT22;58753;49.440;11.126;2023-02-28T09:38:49;0.96;67.25
71096;DHT22;58753;49.440;11.126;2023-02-28T09:41:24;1.17;67.07
71096;DHT22;58753;49.440;11.126;2023-02-28T09:43:55;1.27;66.49
71096;DHT22;58753;49.440;11.126;2023-02-28T09:46:43;1.33;65.80
71096;DHT22;58753;49.440;11.126;2023-02-28T09:49:21;1.50;65.65
71096;DHT22;58753;49.440;11.126;2023-02-28T09:52:03;1.75;65.33
71096;DHT22;58753;49.440;11.126;2023-02-28T09:54:31;1.79;64.44
71096;DHT22;58753;49.440;11.126;2023-02-28T09:59:43;1.91;63.58
71096;DHT22;58753;49.440;11.126;2023-02-28T10:02:19;1.92;63.14
71096;DHT22;58753;49.440;11.126;2023-02-28T10:05:02;1.98;62.81
71096;DHT22;58753;49.440;11.126;2023-02-28T10:08:03;1.98;62.34
71096;DHT22;58753;49.440;11.126;2023-02-28T10:13:11;1.95;61.70
71096;DHT22;58753;49.440;11.126;2023-02-28T10:15:38;2.01;61.27
71096;DHT22;58753;49.440;11.126;2023-02-28T10:18:04;2.06;61.10
71096;DHT22;58753;49.440;11.126;2023-02-28T10:20:37;2.06;60.80
71096;DHT22;58753;49.440;11.126;2023-02-28T10:23:14;2.11;60.79
71096;DHT22;58753;49.440;11.126;2023-02-28T10:25:46;2.22;60.70
71096;DHT22;58753;49.440;11.126;2023-02-28T10:28:17;2.32;60.49
71096;DHT22;58753;49.440;11.126;2023-02-28T10:30:48;2.52;60.41
71096;DHT22;58753;49.440;11.126;2023-02-28T10:33:21;2.57;59.81
71096;DHT22;58753;49.440;11.126;2023-02-28T10:35:47;2.61;59.34
71096;DHT22;58753;49.440;11.126;2023-02-28T10:38:25;2.68;59.08
71096;DHT22;58753;49.440;11.126;2023-02-28T10:40:51;2.72;58.43
71096;DHT22;58753;49.440;11.126;2023-02-28T10:49:02;2.95;57.92
71096;DHT22;58753;49.440;11.126;2023-02-28T10:51:35;3.01;57.41
71096;DHT22;58753;49.440;11.126;2023-02-28T10:54:02;3.09;57.26
71096;DHT22;58753;49.440;11.126;2023-02-28T10:56:28;3.15;56.77
71096;DHT22;58753;49.440;11.126;2023-02-28T11:03:55;3.42;56.12
71096;DHT22;58753;49.440;11.126;2023-02-28T11:06:28;3.51;55.67
71096;DHT22;58753;49.440;11.126;2023-02-28T11:09:15;3.66;55.53
71096;DHT22;58753;49.440;11.126;2023-02-28T11:11:46;3.82;54.57
71096;DHT22;58753;49.440;11.126;2023-02-28T11:14:22;3.99;54.31
71096;DHT22;58753;49.440;11.126;2023-02-28T11:16:49;4.07;54.02
71096;DHT22;58753;49.440;11.126;2023-02-28T11:19:20;4.21;53.47
71096;DHT22;58753;49.440;11.126;2023-02-28T11:22:00;4.45;53.92
71096;DHT22;58753;49.440;11.126;2023-02-28T11:24:29;5.08;54.20
71096;DHT22;58753;49.440;11.126;2023-02-28T11:26:56;6.04;53.54
71096;DHT22;58753;49.440;11.126;2023-02-28T11:29:25;6.50;51.78
71096;DHT22;58753;49.440;11.126;2023-02-28T11:34:36;8.87;49.55
71096;DHT22;58753;49.440;11.126;2023-02-28T11:37:04;9.59;48.10
71096;DHT22;58753;49.440;11.126;2023-02-28T11:39:31;10.51;46.43
71096;DHT22;58753;49.440;11.126;2023-02-28T11:47:43;11.95;41.43
71096;DHT22;58753;49.440;11.126;2023-02-28T11:55:40;12.71;37.42
71096;DHT22;58753;49.440;11.126;2023-02-28T12:06:00;11.80;35.43
71096;DHT22;58753;49.440;11.126;2023-02-28T12:08:43;12.30;34.84
71096;DHT22;58753;49.440;11.126;2023-02-28T12:17:00;12.41;33.47
71096;DHT22;58753;49.440;11.126;2023-02-28T12:28:02;13.57;31.37
71096;DHT22;58753;49.440;11.126;2023-02-28T12:30:31;13.58;30.11
71096;DHT22;58753;49.440;11.126;2023-02-28T12:33:06;14.09;31.28
71096;DHT22;58753;49.440;11.126;2023-02-28T12:35:42;14.24;29.31
71096;DHT22;58753;49.440;11.126;2023-02-28T12:38:13;14.08;29.79
71096;DHT22;58753;49.440;11.126;2023-02-28T12:40:50;14.31;29.55
71096;DHT22;58753;49.440;11.126;2023-02-28T12:43:18;14.32;28.97
71096;DHT22;58753;49.440;11.126;2023-02-28T12:45:58;14.09;28.65
71096;DHT22;58753;49.440;11.126;2023-02-28T12:48:43;14.41;29.03
71096;DHT22;58753;49.440;11.126;2023-02-28T12:51:10;14.09;28.27
71096;DHT22;58753;49.440;11.126;2023-02-28T12:53:52;13.87;27.55
71096;DHT22;58753;49.440;11.126;2023-02-28T12:56:33;13.15;27.26
71096;DHT22;58753;49.440;11.126;2023-02-28T12:59:19;12.68;28.29
71096;DHT22;58753;49.440;11.126;2023-02-28T13:10:02;11.94;28.64
71096;DHT22;58753;49.440;11.126;2023-02-28T13:12:28;11.49;28.86
71096;DHT22;58753;49.440;11.126;2023-02-28T13:15:06;11.20;28.90
71096;DHT22;58753;49.440;11.126;2023-02-28T13:17:39;10.40;29.13
71096;DHT22;58753;49.440;11.126;2023-02-28T13:20:16;9.78;29.72
71096;DHT22;58753;49.440;11.126;2023-02-28T13:22:44;9.38;30.52
71096;DHT22;58753;49.440;11.126;2023-02-28T13:27:52;8.63;32.01
71096;DHT22;58753;49.440;11.126;2023-02-28T13:33:31;7.85;33.46
71096;DHT22;58753;49.440;11.126;2023-02-28T13:38:38;7.34;34.52
71096;DHT22;58753;49.440;11.126;2023-02-28T13:44:03;6.99;35.64
71096;DHT22;58753;49.440;11.126;2023-02-28T13:46:29;6.85;36.27
71096;DHT22;58753;49.440;11.126;2023-02-28T13:48:55;6.76;36.83
71096;DHT22;58753;49.440;11.126;2023-02-28T14:05:32;6.76;38.67
71096;DHT22;58753;49.440;11.126;2023-02-28T14:08:04;6.69;39.36
71096;DHT22;58753;49.440;11.126;2023-02-28T14:10:33;6.77;39.72
71096;DHT22;58753;49.440;11.126;2023-02-28T14:13:36;6.73;40.01
71096;DHT22;58753;49.440;11.126;2023-02-28T14:16:00;7.62;40.36
71096;DHT22;58753;49.440;11.126;2023-02-28T14:18:37;7.85;39.09
71096;DHT22;58753;49.440;11.126;2023-02-28T14:21:13;8.22;39.46
71096;DHT22;58753;49.440;11.126;2023-02-28T14:23:49;8.50;39.28
71096;DHT22;58753;49.440;11.126;2023-02-28T14:32:37;8.98;39.02
71096;DHT22;58753;49.440;11.126;2023-02-28T14:37:44;9.18;37.33
71096;DHT22;58753;49.440;11.126;2023-02-28T14:40:26;9.68;36.98
71096;DHT22;58753;49.440;11.126;2023-02-28T14:43:01;10.16;37.08
71096;DHT22;58753;49.440;11.126;2023-02-28T14:45:29;10.61;35.59
71096;DHT22;58753;49.440;11.126;2023-02-28T14:47:56;10.81;34.96
71096;DHT22;58753;49.440;11.126;2023-02-28T14:50:47;10.47;34.26
71096;DHT22;58753;49.440;11.126;2023-02-28T14:53:18;10.21;34.02
71096;DHT22;58753;49.440;11.126;2023-02-28T14:55:46;9.60;33.40
71096;DHT22;58753;49.440;11.126;2023-02-28T14:58:41;8.56;33.81
71096;DHT22;58753;49.440;11.126;2023-02-28T15:01:20;7.74;34.80
71096;DHT22;58753;49.440;11.126;2023-02-28T15:03:46;7.13;35.43
71096;DHT22;58753;49.440;11.126;2023-02-28T15:06:14;6.65;36.46
71096;DHT22;58753;49.440;11.126;2023-02-28T15:08:41;6.68;37.79
71096;DHT22;58753;49.440;11.126;2023-02-28T15:11:08;7.11;38.26
71096;DHT22;58753;49.440;11.126;2023-02-28T15:13:44;7.07;38.18
71096;DHT22;58753;49.440;11.126;2023-02-28T15:16:25;6.50;38.52
71096;DHT22;58753;49.440;11.126;2023-02-28T15:18:54;6.18;39.47
71096;DHT22;58753;49.440;11.126;2023-02-28T15:21:28;5.91;39.99
71096;DHT22;58753;49.440;11.126;2023-02-28T15:24:06;5.64;40.53
71096;DHT22;58753;49.440;11.126;2023-02-28T15:26:36;5.43;41.21
71096;DHT22;58753;49.440;11.126;2023-02-28T15:29:15;5.22;41.71
71096;DHT22;58753;49.440;11.126;2023-02-28T15:31:49;5.02;42.24
71096;DHT22;58753;49.440;11.126;2023-02-28T15:34:26;4.81;42.76
71096;DHT22;58753;49.440;11.126;2023-02-28T15:36:52;4.67;43.24
71096;DHT22;58753;49.440;11.126;2023-02-28T15:39:23;4.55;43.68
71096;DHT22;58753;49.440;11.126;2023-02-28T15:41:50;4.44;44.13
71096;DHT22;58753;49.440;11.126;2023-02-28T15:44:30;4.36;44.52
71096;DHT22;58753;49.440;11.126;2023-02-28T15:49:53;4.14;45.18
71096;DHT22;58753;49.440;11.126;2023-02-28T15:52:34;4.06;45.53
71096;DHT22;58753;49.440;11.126;2023-02-28T15:55:20;3.97;45.94
71096;DHT22;58753;49.440;11.126;2023-02-28T15:57:50;3.87;46.20
71096;DHT22;58753;49.440;11.126;2023-02-28T16:00:20;3.80;46.46
71096;DHT22;58753;49.440;11.126;2023-02-28T16:02:45;3.78;46.80
71096;DHT22;58753;49.440;11.126;2023-02-28T16:07:42;3.66;47.14
71096;DHT22;58753;49.440;11.126;2023-02-28T16:10:10;3.59;47.39
71096;DHT22;58753;49.440;11.126;2023-02-28T16:12:38;3.49;47.58
71096;DHT22;58753;49.440;11.126;2023-02-28T16:15:16;3.42;48.04
71096;DHT22;58753;49.440;11.126;2023-02-28T16:17:42;3.36;48.25
71096;DHT22;58753;49.440;11.126;2023-02-28T16:20:26;3.25;48.49
71096;DHT22;58753;49.440;11.126;2023-02-28T16:22:52;3.15;48.79
71096;DHT22;58753;49.440;11.126;2023-02-28T16:25:20;3.05;48.99
71096;DHT22;58753;49.440;11.126;2023-02-28T16:27:49;2.98;49.22
71096;DHT22;58753;49.440;11.126;2023-02-28T16:30:20;2.87;49.48
71096;DHT22;58753;49.440;11.126;2023-02-28T16:32:47;2.81;49.71
71096;DHT22;58753;49.440;11.126;2023-02-28T16:35:13;2.73;49.89
71096;DHT22;58753;49.440;11.126;2023-02-28T16:37:39;2.66;50.12
71096;DHT22;58753;49.440;11.126;2023-02-28T16:40:05;2.57;50.34
71096;DHT22;58753;49.440;11.126;2023-02-28T16:42:31;2.49;50.56
71096;DHT22;58753;49.440;11.126;2023-02-28T16:44:56;2.42;50.75
71096;DHT22;58753;49.440;11.126;2023-02-28T16:47:23;2.33;51.01
71096;DHT22;58753;49.440;11.126;2023-02-28T16:49:49;2.25;51.19
71096;DHT22;58753;49.440;11.126;2023-02-28T16:52:14;2.19;51.45
71096;DHT22;58753;49.440;11.126;2023-02-28T16:54:40;2.11;51.71
71096;DHT22;58753;49.440;11.126;2023-02-28T16:57:18;1.99;51.94
71096;DHT22;58753;49.440;11.126;2023-02-28T16:59:46;1.92;52.23
71096;DHT22;58753;49.440;11.126;2023-02-28T17:02:14;1.83;52.42
71096;DHT22;58753;49.440;11.126;2023-02-28T17:04:40;1.75;52.71
71096;DHT22;58753;49.440;11.126;2023-02-28T17:07:11;1.68;53.03
71096;DHT22;58753;49.440;11.126;2023-02-28T17:09:37;1.65;53.38
71096;DHT22;58753;49.440;11.126;2023-02-28T17:12:03;1.60;53.63
71096;DHT22;58753;49.440;11.126;2023-02-28T17:14:28;1.55;53.87
71096;DHT22;58753;49.440;11.126;2023-02-28T17:16:53;1.47;54.08
71096;DHT22;58753;49.440;11.126;2023-02-28T17:19:19;1.46;54.34
71096;DHT22;58753;49.440;11.126;2023-02-28T17:21:45;1.38;54.49
71096;DHT22;58753;49.440;11.126;2023-02-28T17:24:11;1.36;54.79
71096;DHT22;58753;49.440;11.126;2023-02-28T17:26:42;1.31;54.98
71096;DHT22;58753;49.440;11.126;2023-02-28T17:29:19;1.24;55.22
71096;DHT22;58753;49.440;11.126;2023-02-28T17:31:45;1.22;55.41
71096;DHT22;58753;49.440;11.126;2023-02-28T17:34:10;1.17;55.64
71096;DHT22;58753;49.440;11.126;2023-02-28T17:36:36;1.12;55.91
71096;DHT22;58753;49.440;11.126;2023-02-28T17:39:04;1.08;56.11
71096;DHT22;58753;49.440;11.126;2023-02-28T17:41:33;1.01;56.24
71096;DHT22;58753;49.440;11.126;2023-02-28T17:43:59;1.00;56.55
71096;DHT22;58753;49.440;11.126;2023-02-28T17:46:25;0.97;56.71
71096;DHT22;58753;49.440;11.126;2023-02-28T17:48:52;0.93;56.90
71096;DHT22;58753;49.440;11.126;2023-02-28T17:51:19;0.89;57.10